Time;durP1;ratioP1;P1;durP2;ratioP2;P2;SDS_P1;SDS_P2;PMS_P1;PMS_P2;Temp;Humidity;BMP_temperature;BMP_pressure;BME280_temperature;BME280_humidity;BME280_pressure;Samples;Min_cycle;Max_cycle;Signal;HPM_P1;HPM_P2
2023/07/30 00:01:00;;;;;;;;;;;18.60;99.90;;;;;;4984707;28;19922;-70
2023/07/30 00:03:26;;;;;;;;;;;18.60;99.90;;;;;;4985103;28;19954;-69
2023/07/30 00:05:54;;;;;;;;;;;18.60;99.90;;;;;;4984928;28;19985;-70
2023/07/30 00:08:20;;;;;;;;;;;18.60;99.90;;;;;;4985044;28;20145;-70
2023/07/30 00:10:48;;;;;;;;;;;18.60;99.90;;;;;;4984590;28;19922;-70
2023/07/30 00:13:15;;;;;;;;;;;18.60;99.90;;;;;;4985130;28;19957;-70
2023/07/30 00:15:42;;;;;;;;;;;18.60;99.90;;;;;;4984549;28;19922;-69
2023/07/30 00:18:08;;;;;;;;;;;18.60;99.90;;;;;;4984726;28;19985;-70
2023/07/30 00:20:35;;;;;;;;;;;18.60;99.90;;;;;;4984627;28;20117;-70
2023/07/30 00:23:02;;;;;;;;;;;18.60;99.90;;;;;;4984781;28;19926;-70
2023/07/30 00:25:28;;;;;;;;;;;18.60;99.90;;;;;;4984488;28;19922;-70
2023/07/30 00:27:56;;;;;;;;;;;18.60;99.90;;;;;;4984766;28;19928;-70
2023/07/30 00:30:23;;;;;;;;;;;18.60;99.90;;;;;;4984593;28;19997;-69
2023/07/30 00:32:50;;;;;;;;;;;18.60;99.90;;;;;;4984788;28;19985;-70
2023/07/30 00:35:16;;;;;;;;;;;18.60;99.90;;;;;;4991331;28;20285;-70
2023/07/30 00:37:43;;;;;;;;;;;18.70;99.90;;;;;;5003892;28;19928;-70
2023/07/30 00:40:10;;;;;;;;;;;18.70;99.90;;;;;;5003537;28;19922;-70
2023/07/30 00:42:36;;;;;;;;;;;18.70;99.90;;;;;;5004093;28;19928;-69
2023/07/30 00:45:05;;;;;;;;;;;18.70;99.90;;;;;;5003838;28;20150;-70
2023/07/30 00:47:32;;;;;;;;;;;18.70;99.90;;;;;;5004017;28;19922;-70
2023/07/30 00:49:59;;;;;;;;;;;18.70;99.90;;;;;;5003548;28;19981;-70
2023/07/30 00:52:26;;;;;;;;;;;18.70;99.90;;;;;;5004134;28;19998;-70
2023/07/30 00:54:53;;;;;;;;;;;18.80;99.90;;;;;;5003696;28;19989;-69
2023/07/30 00:57:20;;;;;;;;;;;18.70;99.90;;;;;;5003948;28;19928;-70
2023/07/30 00:59:47;;;;;;;;;;;18.70;99.90;;;;;;4997881;28;19961;-69
2023/07/30 01:02:15;;;;;;;;;;;18.70;99.90;;;;;;5003872;28;19968;-70
2023/07/30 01:04:41;;;;;;;;;;;18.70;99.90;;;;;;5003581;28;19929;-70
2023/07/30 01:07:09;;;;;;;;;;;18.60;99.90;;;;;;4984472;28;20160;-70
2023/07/30 01:09:36;;;;;;;;;;;18.60;99.90;;;;;;4988777;28;20145;-69
2023/07/30 01:12:03;;;;;;;;;;;18.60;99.90;;;;;;5003787;28;19981;-70
2023/07/30 01:14:30;;;;;;;;;;;18.50;99.90;;;;;;5015728;28;19985;-69
2023/07/30 01:16:56;;;;;;;;;;;18.50;99.90;;;;;;5003713;28;19964;-70
2023/07/30 01:19:24;;;;;;;;;;;18.50;99.90;;;;;;5003276;28;19921;-70
2023/07/30 01:21:52;;;;;;;;;;;18.50;99.90;;;;;;5003528;28;19921;-70
2023/07/30 01:24:19;;;;;;;;;;;18.50;99.90;;;;;;5003752;28;19960;-70
2023/07/30 01:26:47;;;;;;;;;;;18.40;99.90;;;;;;5003495;28;20117;-69
2023/07/30 01:29:16;;;;;;;;;;;18.40;99.90;;;;;;5003515;28;19928;-70
2023/07/30 01:31:44;;;;;;;;;;;18.40;99.90;;;;;;5003273;28;19922;-72
2023/07/30 01:34:11;;;;;;;;;;;18.30;99.90;;;;;;5003461;28;19922;-70
2023/07/30 01:36:39;;;;;;;;;;;18.30;99.90;;;;;;5003900;28;19989;-70
2023/07/30 01:39:08;;;;;;;;;;;18.30;99.90;;;;;;4985510;28;19922;-70
2023/07/30 01:41:35;;;;;;;;;;;18.30;99.90;;;;;;4984164;28;19922;-70
2023/07/30 01:44:02;;;;;;;;;;;18.30;99.90;;;;;;4995762;28;19957;-70
2023/07/30 01:46:28;;;;;;;;;;;18.30;99.90;;;;;;5007211;28;19928;-69
2023/07/30 01:48:55;;;;;;;;;;;18.30;99.90;;;;;;5007260;28;20113;-70
2023/07/30 01:51:22;;;;;;;;;;;18.30;99.90;;;;;;5006748;28;19929;-70
2023/07/30 01:53:48;;;;;;;;;;;18.20;99.90;;;;;;5007055;28;19921;-69
2023/07/30 01:56:16;;;;;;;;;;;18.20;99.90;;;;;;5006925;28;19922;-69
2023/07/30 01:58:43;;;;;;;;;;;18.10;99.90;;;;;;5006182;28;19988;-70
2023/07/30 02:01:09;;;;;;;;;;;18.10;99.90;;;;;;5005917;28;19989;-70
2023/07/30 02:03:36;;;;;;;;;;;18.10;99.90;;;;;;4996370;28;20178;-70
2023/07/30 02:06:03;;;;;;;;;;;18.00;99.90;;;;;;4987306;28;20070;-69
2023/07/30 02:08:30;;;;;;;;;;;18.10;99.90;;;;;;4986989;28;19960;-69
2023/07/30 02:10:57;;;;;;;;;;;18.00;99.90;;;;;;4986825;28;19929;-70
2023/07/30 02:13:25;;;;;;;;;;;18.00;99.90;;;;;;4987158;28;20260;-70
2023/07/30 02:15:52;;;;;;;;;;;18.00;99.90;;;;;;4986893;28;19929;-70
2023/07/30 02:18:18;;;;;;;;;;;18.00;99.90;;;;;;4987163;28;19922;-70
2023/07/30 02:20:45;;;;;;;;;;;17.90;99.90;;;;;;4988228;28;19928;-71
2023/07/30 02:23:12;;;;;;;;;;;17.90;99.90;;;;;;4986757;28;20240;-70
2023/07/30 02:25:39;;;;;;;;;;;17.80;99.90;;;;;;4986914;28;19922;-70
2023/07/30 02:28:05;;;;;;;;;;;17.90;99.90;;;;;;4986575;28;19950;-68
2023/07/30 02:30:35;;;;;;;;;;;17.80;99.90;;;;;;4986596;28;19962;-70
2023/07/30 02:33:01;;;;;;;;;;;17.80;99.90;;;;;;4987031;28;19922;-70
2023/07/30 02:35:28;;;;;;;;;;;17.80;99.90;;;;;;4986584;28;20196;-70
2023/07/30 02:37:54;;;;;;;;;;;17.80;99.90;;;;;;4986523;28;19989;-70
2023/07/30 02:40:21;;;;;;;;;;;17.80;99.90;;;;;;4986315;28;19953;-70
2023/07/30 02:42:48;;;;;;;;;;;17.80;99.90;;;;;;4986316;28;20221;-70
2023/07/30 02:45:17;;;;;;;;;;;17.80;99.90;;;;;;4985983;28;19949;-70
2023/07/30 02:47:45;;;;;;;;;;;17.90;99.90;;;;;;4985759;28;19922;-70
2023/07/30 02:50:12;;;;;;;;;;;17.80;99.90;;;;;;4996437;28;19997;-69
2023/07/30 02:52:39;;;;;;;;;;;17.90;99.90;;;;;;5005950;28;20121;-70
2023/07/30 02:55:05;;;;;;;;;;;17.90;99.90;;;;;;5004937;28;19921;-70
2023/07/30 02:57:32;;;;;;;;;;;17.90;99.90;;;;;;5005338;28;20208;-69
2023/07/30 03:00:00;;;;;;;;;;;17.80;99.90;;;;;;5003911;28;19945;-70
2023/07/30 03:02:26;;;;;;;;;;;17.80;99.90;;;;;;5005572;28;19922;-69
2023/07/30 03:04:54;;;;;;;;;;;17.80;99.90;;;;;;5020388;28;20179;-70
2023/07/30 03:07:21;;;;;;;;;;;17.80;99.90;;;;;;5012066;28;19921;-69
2023/07/30 03:09:48;;;;;;;;;;;17.80;99.90;;;;;;5004944;28;19960;-70
2023/07/30 03:12:14;;;;;;;;;;;17.80;99.90;;;;;;5005635;28;19928;-70
2023/07/30 03:14:41;;;;;;;;;;;17.80;99.90;;;;;;5005247;28;20272;-70
2023/07/30 03:17:07;;;;;;;;;;;17.80;99.90;;;;;;5005584;28;19988;-69
2023/07/30 03:19:33;;;;;;;;;;;17.80;99.90;;;;;;5005292;28;19985;-70
2023/07/30 03:22:01;;;;;;;;;;;17.80;99.90;;;;;;5005331;28;20298;-70
2023/07/30 03:24:27;;;;;;;;;;;17.80;99.90;;;;;;5005332;28;19922;-70
2023/07/30 03:26:54;;;;;;;;;;;17.70;99.90;;;;;;5000337;28;19922;-70
2023/07/30 03:29:21;;;;;;;;;;;17.70;99.90;;;;;;4985422;28;20015;-70
2023/07/30 03:31:47;;;;;;;;;;;17.70;99.90;;;;;;4985469;28;20233;-70
2023/07/30 03:34:14;;;;;;;;;;;17.70;99.90;;;;;;4985685;28;19929;-70
2023/07/30 03:36:40;;;;;;;;;;;17.70;99.90;;;;;;4985159;28;19990;-70
2023/07/30 03:39:08;;;;;;;;;;;17.60;99.90;;;;;;4985069;28;19929;-70
2023/07/30 03:41:35;;;;;;;;;;;17.60;99.90;;;;;;4985372;28;19922;-70
2023/07/30 03:44:04;;;;;;;;;;;17.70;99.90;;;;;;4984920;28;19929;-70
2023/07/30 03:46:31;;;;;;;;;;;17.70;99.90;;;;;;4985256;28;19922;-70
2023/07/30 03:48:57;;;;;;;;;;;17.70;99.90;;;;;;4985046;28;20205;-70
2023/07/30 03:51:24;;;;;;;;;;;17.70;99.90;;;;;;4984961;28;19929;-70
2023/07/30 03:53:51;;;;;;;;;;;17.70;99.90;;;;;;4985340;28;19922;-69
2023/07/30 03:56:18;;;;;;;;;;;17.70;99.90;;;;;;4993712;28;20174;-70
2023/07/30 03:58:45;;;;;;;;;;;17.70;99.90;;;;;;5004344;28;19928;-70
2023/07/30 04:01:12;;;;;;;;;;;17.70;99.90;;;;;;5005497;28;20057;-70
2023/07/30 04:03:38;;;;;;;;;;;17.70;99.90;;;;;;5004565;28;20280;-70
2023/07/30 04:06:05;;;;;;;;;;;17.70;99.90;;;;;;5004332;28;19985;-70
2023/07/30 04:08:32;;;;;;;;;;;17.70;99.90;;;;;;5004489;28;19984;-70
2023/07/30 04:10:58;;;;;;;;;;;17.70;99.90;;;;;;5003893;28;19985;-70
2023/07/30 04:13:26;;;;;;;;;;;17.70;99.90;;;;;;5004013;28;19978;-70
2023/07/30 04:15:53;;;;;;;;;;;17.70;99.90;;;;;;5002501;28;19921;-70
2023/07/30 04:18:19;;;;;;;;;;;17.70;99.90;;;;;;5004186;28;19984;-70
2023/07/30 04:20:46;;;;;;;;;;;17.70;99.90;;;;;;5012940;28;19972;-70
2023/07/30 04:23:12;;;;;;;;;;;17.70;99.90;;;;;;5023890;28;19992;-70
2023/07/30 04:25:39;;;;;;;;;;;17.80;99.90;;;;;;5023870;28;20256;-70
2023/07/30 04:28:06;;;;;;;;;;;17.80;99.90;;;;;;5023895;28;19928;-70
2023/07/30 04:30:34;;;;;;;;;;;17.80;99.90;;;;;;5006781;28;19928;-70
2023/07/30 04:33:00;;;;;;;;;;;17.80;99.90;;;;;;5003716;28;19928;-70
2023/07/30 04:35:27;;;;;;;;;;;17.80;99.90;;;;;;5003957;28;19943;-70
2023/07/30 04:37:54;;;;;;;;;;;17.80;99.90;;;;;;5004121;28;19922;-70
2023/07/30 04:40:20;;;;;;;;;;;17.80;99.90;;;;;;5003413;28;20173;-70
2023/07/30 04:42:47;;;;;;;;;;;17.90;99.90;;;;;;5003801;28;19922;-70
2023/07/30 04:45:13;;;;;;;;;;;17.90;99.90;;;;;;5003375;28;19992;-70
2023/07/30 04:47:41;;;;;;;;;;;17.90;99.90;;;;;;5003994;28;19928;-70
2023/07/30 04:50:08;;;;;;;;;;;17.90;99.90;;;;;;5003304;28;20114;-70
2023/07/30 04:52:35;;;;;;;;;;;17.90;99.90;;;;;;5004209;28;19922;-70
2023/07/30 04:55:01;;;;;;;;;;;17.80;99.90;;;;;;5004124;28;19985;-70
2023/07/30 04:57:28;;;;;;;;;;;17.80;99.90;;;;;;4997897;28;19981;-70
2023/07/30 04:59:54;;;;;;;;;;;17.80;99.90;;;;;;4993227;28;19921;-70
2023/07/30 05:02:21;;;;;;;;;;;17.80;99.90;;;;;;5003652;28;20132;-70
2023/07/30 05:04:49;;;;;;;;;;;17.80;99.90;;;;;;5003888;28;19922;-70
2023/07/30 05:07:16;;;;;;;;;;;17.70;99.90;;;;;;5003768;28;19954;-70
2023/07/30 05:09:42;;;;;;;;;;;17.70;99.90;;;;;;4985751;28;19929;-70
2023/07/30 05:12:09;;;;;;;;;;;17.80;99.90;;;;;;4984480;28;20117;-70
2023/07/30 05:14:35;;;;;;;;;;;17.80;99.90;;;;;;4984338;28;19985;-70
2023/07/30 05:17:02;;;;;;;;;;;17.80;99.90;;;;;;4985128;28;19986;-70
2023/07/30 05:19:29;;;;;;;;;;;17.90;99.90;;;;;;4987781;28;19953;-70
2023/07/30 05:21:57;;;;;;;;;;;17.80;99.90;;;;;;4988157;28;19989;-70
2023/07/30 05:24:24;;;;;;;;;;;17.90;99.90;;;;;;4988288;28;20158;-70
2023/07/30 05:26:50;;;;;;;;;;;18.00;99.90;;;;;;4988054;28;19928;-70
2023/07/30 05:29:18;;;;;;;;;;;18.00;99.90;;;;;;4987089;28;20005;-70
2023/07/30 05:31:44;;;;;;;;;;;18.10;99.90;;;;;;4987716;28;19957;-69
2023/07/30 05:34:11;;;;;;;;;;;18.10;99.90;;;;;;4987979;28;19985;-70
2023/07/30 05:36:38;;;;;;;;;;;18.20;99.90;;;;;;4987142;28;19928;-70
2023/07/30 05:39:08;;;;;;;;;;;18.30;99.90;;;;;;4987611;28;20086;-70
2023/07/30 05:41:35;;;;;;;;;;;18.20;99.90;;;;;;5023420;28;19921;-68
2023/07/30 05:44:02;;;;;;;;;;;18.30;99.90;;;;;;5026734;28;19932;-69
2023/07/30 05:46:28;;;;;;;;;;;18.30;99.90;;;;;;5026603;28;19988;-69
2023/07/30 05:48:55;;;;;;;;;;;18.40;99.90;;;;;;5026646;28;20005;-69
2023/07/30 05:51:21;;;;;;;;;;;18.40;99.90;;;;;;5026199;28;20399;-69
2023/07/30 05:53:48;;;;;;;;;;;18.40;99.90;;;;;;5022077;28;19953;-68
2023/07/30 05:56:18;;;;;;;;;;;18.40;99.90;;;;;;5007026;28;19981;-69
2023/07/30 05:58:44;;;;;;;;;;;18.40;99.90;;;;;;4991519;28;19960;-69
2023/07/30 06:01:11;;;;;;;;;;;18.40;99.90;;;;;;4986882;28;20180;-69
2023/07/30 06:03:38;;;;;;;;;;;18.40;99.90;;;;;;4987038;28;19922;-69
2023/07/30 06:06:04;;;;;;;;;;;18.30;99.90;;;;;;4987322;28;19961;-69
2023/07/30 06:08:31;;;;;;;;;;;18.30;99.90;;;;;;4987422;28;20175;-69
2023/07/30 06:11:01;;;;;;;;;;;18.30;99.90;;;;;;5000991;28;19992;-69
2023/07/30 06:13:28;;;;;;;;;;;18.30;99.90;;;;;;5006615;28;19928;-69
2023/07/30 06:15:55;;;;;;;;;;;18.30;99.90;;;;;;5006401;28;19928;-68
2023/07/30 06:18:22;;;;;;;;;;;18.40;99.90;;;;;;5006459;28;19926;-69
2023/07/30 06:20:48;;;;;;;;;;;18.30;99.90;;;;;;5017257;28;19984;-68
2023/07/30 06:23:15;;;;;;;;;;;18.40;99.90;;;;;;5026195;28;19928;-69
2023/07/30 06:25:42;;;;;;;;;;;18.40;99.90;;;;;;5026170;28;20114;-69
2023/07/30 06:28:08;;;;;;;;;;;18.40;99.90;;;;;;5025979;28;19927;-69
2023/07/30 06:30:39;;;;;;;;;;;18.50;99.90;;;;;;5025462;28;19928;-69
2023/07/30 06:33:05;;;;;;;;;;;18.50;99.90;;;;;;5025711;28;20232;-69
2023/07/30 06:35:32;;;;;;;;;;;18.60;99.90;;;;;;5025906;28;20092;-69
2023/07/30 06:37:58;;;;;;;;;;;18.60;99.90;;;;;;5026145;28;20173;-69
2023/07/30 06:40:25;;;;;;;;;;;18.70;99.90;;;;;;4995630;28;19965;-69
2023/07/30 06:42:51;;;;;;;;;;;18.70;99.90;;;;;;4986688;28;19953;-69
2023/07/30 06:45:18;;;;;;;;;;;18.70;99.90;;;;;;4986482;28;19957;-69
2023/07/30 06:47:46;;;;;;;;;;;18.80;99.90;;;;;;4986647;28;19989;-69
2023/07/30 06:50:13;;;;;;;;;;;18.90;99.90;;;;;;4986283;28;19928;-69
2023/07/30 06:52:39;;;;;;;;;;;18.90;99.90;;;;;;4986264;28;20213;-68
2023/07/30 06:55:06;;;;;;;;;;;19.00;99.90;;;;;;4986291;28;19990;-69
2023/07/30 06:57:33;;;;;;;;;;;19.00;99.90;;;;;;4986306;28;19961;-70
2023/07/30 07:00:00;;;;;;;;;;;19.00;99.90;;;;;;4985899;28;20209;-69
2023/07/30 07:02:27;;;;;;;;;;;19.00;99.90;;;;;;4986307;28;20242;-69
2023/07/30 07:04:55;;;;;;;;;;;19.00;99.90;;;;;;4986359;28;19922;-69
2023/07/30 07:07:22;;;;;;;;;;;19.00;99.90;;;;;;4986173;28;20594;-69
2023/07/30 07:09:48;;;;;;;;;;;18.90;99.90;;;;;;4985928;28;19957;-69
2023/07/30 07:12:15;;;;;;;;;;;18.90;99.90;;;;;;4994571;28;19976;-68
2023/07/30 07:14:42;;;;;;;;;;;18.80;99.90;;;;;;5012308;28;20256;-70
2023/07/30 07:17:09;;;;;;;;;;;18.90;99.90;;;;;;5005115;28;19929;-69
2023/07/30 07:19:36;;;;;;;;;;;18.80;99.90;;;;;;5004818;28;19929;-68
2023/07/30 07:22:05;;;;;;;;;;;18.80;99.90;;;;;;5000402;28;20098;-69
2023/07/30 07:24:32;;;;;;;;;;;18.80;99.90;;;;;;4998895;28;19981;-69
2023/07/30 07:26:58;;;;;;;;;;;18.80;99.90;;;;;;5014667;28;19929;-69
2023/07/30 07:29:25;;;;;;;;;;;18.70;99.90;;;;;;5002313;28;19994;-70
2023/07/30 07:31:51;;;;;;;;;;;18.70;99.90;;;;;;4985784;28;19997;-70
2023/07/30 07:34:18;;;;;;;;;;;18.70;99.90;;;;;;4985906;28;19993;-69
2023/07/30 07:36:44;;;;;;;;;;;18.70;99.90;;;;;;4985564;28;19964;-70
2023/07/30 07:39:12;;;;;;;;;;;18.70;99.90;;;;;;4985213;28;20278;-69
2023/07/30 07:41:39;;;;;;;;;;;18.60;99.90;;;;;;5002186;28;19928;-70
2023/07/30 07:44:06;;;;;;;;;;;18.60;99.90;;;;;;5005126;28;19928;-69
2023/07/30 07:46:32;;;;;;;;;;;18.60;99.90;;;;;;5004594;28;20256;-69
2023/07/30 07:48:59;;;;;;;;;;;18.60;99.90;;;;;;5004675;28;20001;-70
2023/07/30 07:51:26;;;;;;;;;;;18.60;99.90;;;;;;5004487;28;20112;-69
2023/07/30 07:53:52;;;;;;;;;;;18.60;99.90;;;;;;5004412;28;19928;-69
2023/07/30 07:56:20;;;;;;;;;;;18.60;99.90;;;;;;5004780;28;19953;-69
2023/07/30 07:58:47;;;;;;;;;;;18.60;99.90;;;;;;5005155;28;19921;-69
2023/07/30 08:01:14;;;;;;;;;;;18.70;99.90;;;;;;5004174;28;19988;-69
2023/07/30 08:03:40;;;;;;;;;;;18.80;99.90;;;;;;5004657;28;19922;-69
2023/07/30 08:06:07;;;;;;;;;;;18.80;99.90;;;;;;4985309;28;19981;-69
2023/07/30 08:08:33;;;;;;;;;;;18.90;99.90;;;;;;4985146;28;19922;-69
2023/07/30 08:11:05;;;;;;;;;;;19.00;99.90;;;;;;4984968;28;19981;-69
2023/07/30 08:13:33;;;;;;;;;;;19.10;99.90;;;;;;4985185;28;19922;-69
2023/07/30 08:15:59;;;;;;;;;;;19.20;99.90;;;;;;4984794;28;19923;-69
2023/07/30 08:18:26;;;;;;;;;;;19.20;99.90;;;;;;4985099;28;19929;-69
2023/07/30 08:20:53;;;;;;;;;;;19.30;99.90;;;;;;4984795;28;19929;-69
2023/07/30 08:23:19;;;;;;;;;;;19.30;99.90;;;;;;4985073;28;20117;-69
2023/07/30 08:25:46;;;;;;;;;;;19.40;99.90;;;;;;4985190;28;20118;-69
2023/07/30 08:28:13;;;;;;;;;;;19.40;99.90;;;;;;4985021;28;20168;-69
2023/07/30 08:30:41;;;;;;;;;;;19.40;99.90;;;;;;4999068;28;20028;-69
2023/07/30 08:33:07;;;;;;;;;;;19.40;99.90;;;;;;5004669;28;19922;-70
2023/07/30 08:35:34;;;;;;;;;;;19.40;99.90;;;;;;5004445;28;20177;-69
2023/07/30 08:38:00;;;;;;;;;;;19.50;99.90;;;;;;5003938;28;19922;-70
2023/07/30 08:40:27;;;;;;;;;;;19.60;99.90;;;;;;5004022;28;20205;-69
2023/07/30 08:42:54;;;;;;;;;;;19.70;99.90;;;;;;5003932;28;19984;-70
2023/07/30 08:45:21;;;;;;;;;;;19.80;99.90;;;;;;5003911;28;19929;-70
2023/07/30 08:47:49;;;;;;;;;;;19.80;99.90;;;;;;5023339;28;19921;-69
2023/07/30 08:50:16;;;;;;;;;;;19.80;99.90;;;;;;5023560;28;20244;-69
2023/07/30 08:52:43;;;;;;;;;;;19.90;99.90;;;;;;5025520;28;19984;-69
2023/07/30 08:55:11;;;;;;;;;;;19.90;99.90;;;;;;5027683;28;19921;-69
2023/07/30 08:57:38;;;;;;;;;;;19.90;99.90;;;;;;5027832;28;20231;-69
2023/07/30 09:00:08;;;;;;;;;;;19.90;99.90;;;;;;5027024;28;19921;-69
2023/07/30 09:02:38;;;;;;;;;;;19.90;99.90;;;;;;5006204;28;19922;-69
2023/07/30 09:05:06;;;;;;;;;;;19.90;99.90;;;;;;5007120;28;19953;-69
2023/07/30 09:07:40;;;;;;;;;;;20.00;99.90;;;;;;4987825;28;19928;-69
2023/07/30 09:10:07;;;;;;;;;;;20.00;99.90;;;;;;4987978;28;19989;-69
2023/07/30 09:12:34;;;;;;;;;;;20.00;99.90;;;;;;4988159;28;20269;-69
2023/07/30 09:15:02;;;;;;;;;;;20.10;99.90;;;;;;4988031;28;19985;-70
2023/07/30 09:17:29;;;;;;;;;;;20.20;99.90;;;;;;4988072;28;19934;-69
2023/07/30 09:19:56;;;;;;;;;;;20.10;99.90;;;;;;4988154;28;19989;-69
2023/07/30 09:22:27;;;;;;;;;;;20.10;99.90;;;;;;4991841;28;19948;-69
2023/07/30 09:24:54;;;;;;;;;;;20.00;99.90;;;;;;5007425;28;19922;-69
2023/07/30 09:27:22;;;;;;;;;;;19.90;99.90;;;;;;5007622;28;20252;-69
2023/07/30 09:29:51;;;;;;;;;;;19.90;99.90;;;;;;4996644;28;20248;-69
2023/07/30 09:32:18;;;;;;;;;;;20.00;99.90;;;;;;4987845;28;19930;-69
2023/07/30 09:34:45;;;;;;;;;;;20.00;99.90;;;;;;4988055;28;19928;-69
2023/07/30 09:37:12;;;;;;;;;;;20.00;99.90;;;;;;4988159;28;19922;-69
2023/07/30 09:39:40;;;;;;;;;;;20.00;99.90;;;;;;4987768;28;19929;-69
2023/07/30 09:42:06;;;;;;;;;;;20.00;99.90;;;;;;4988030;28;19985;-69
2023/07/30 09:44:34;;;;;;;;;;;19.90;99.90;;;;;;4987806;28;20288;-70
2023/07/30 09:47:04;;;;;;;;;;;19.80;99.90;;;;;;4987632;28;19922;-69
2023/07/30 09:49:31;;;;;;;;;;;19.70;99.90;;;;;;4987551;28;20126;-69
2023/07/30 09:51:58;;;;;;;;;;;19.60;99.90;;;;;;4988224;28;19933;-69
2023/07/30 09:54:24;;;;;;;;;;;19.30;99.90;;;;;;5000786;28;19980;-69
2023/07/30 09:56:52;;;;;;;;;;;19.10;99.90;;;;;;5003368;28;19928;-70
2023/07/30 09:59:19;;;;;;;;;;;18.80;99.90;;;;;;4987044;28;19922;-69
2023/07/30 10:01:47;;;;;;;;;;;18.60;99.90;;;;;;4987188;28;19986;-69
2023/07/30 10:04:14;;;;;;;;;;;18.50;99.90;;;;;;4986985;28;19922;-69
2023/07/30 10:06:43;;;;;;;;;;;18.40;99.90;;;;;;4987375;28;19981;-70
2023/07/30 10:09:11;;;;;;;;;;;18.40;99.90;;;;;;4986964;28;19982;-70
2023/07/30 10:11:38;;;;;;;;;;;18.50;99.90;;;;;;4986631;28;19992;-70
2023/07/30 10:14:06;;;;;;;;;;;18.60;99.90;;;;;;4986497;28;20122;-69
2023/07/30 10:16:33;;;;;;;;;;;18.70;99.90;;;;;;4985732;28;19961;-69
2023/07/30 10:18:59;;;;;;;;;;;18.80;99.90;;;;;;4986632;28;19989;-69
2023/07/30 10:21:29;;;;;;;;;;;18.90;99.90;;;;;;4986333;28;19992;-69
2023/07/30 10:24:00;;;;;;;;;;;19.00;99.90;;;;;;4998493;28;19921;-70
2023/07/30 10:26:30;;;;;;;;;;;19.20;99.90;;;;;;5005924;28;20047;-69
2023/07/30 10:29:19;;;;;;;;;;;19.30;99.90;;;;;;5006123;28;19987;-70
2023/07/30 10:31:48;;;;;;;;;;;19.40;99.90;;;;;;4998831;28;20280;-70
2023/07/30 10:34:15;;;;;;;;;;;19.50;99.90;;;;;;5001617;28;19922;-71
2023/07/30 10:36:43;;;;;;;;;;;19.60;99.90;;;;;;4996031;28;19928;-69
2023/07/30 10:39:14;;;;;;;;;;;19.60;99.90;;;;;;5005038;28;19976;-70
2023/07/30 10:41:40;;;;;;;;;;;19.70;99.90;;;;;;5005102;28;19984;-70
2023/07/30 10:44:07;;;;;;;;;;;19.70;99.90;;;;;;5007713;28;19940;-70
2023/07/30 10:46:35;;;;;;;;;;;19.80;99.90;;;;;;5010685;28;19952;-70
2023/07/30 10:49:04;;;;;;;;;;;19.80;99.90;;;;;;5016588;28;19989;-72
2023/07/30 10:51:31;;;;;;;;;;;19.90;99.90;;;;;;5003182;28;19921;-69
2023/07/30 10:53:57;;;;;;;;;;;20.00;99.90;;;;;;4997134;28;19925;-69
2023/07/30 10:56:24;;;;;;;;;;;20.10;99.90;;;;;;5005527;28;20259;-69
2023/07/30 10:58:52;;;;;;;;;;;20.10;99.90;;;;;;5005508;28;19928;-69
2023/07/30 11:01:18;;;;;;;;;;;20.10;99.90;;;;;;5005056;28;19952;-69
2023/07/30 11:03:48;;;;;;;;;;;20.20;99.90;;;;;;5005566;28;19928;-69
2023/07/30 11:06:21;;;;;;;;;;;20.30;99.90;;;;;;4993944;28;19928;-70
2023/07/30 11:08:48;;;;;;;;;;;20.40;99.90;;;;;;5023435;28;20004;-69
2023/07/30 11:11:15;;;;;;;;;;;20.50;99.90;;;;;;5002979;28;19960;-69
2023/07/30 11:13:45;;;;;;;;;;;20.60;99.90;;;;;;5005727;28;19922;-69
2023/07/30 11:16:12;;;;;;;;;;;20.60;99.90;;;;;;5004280;28;19922;-72
2023/07/30 11:18:39;;;;;;;;;;;20.70;99.90;;;;;;5005078;28;19992;-70
2023/07/30 11:21:08;;;;;;;;;;;20.70;99.90;;;;;;4994652;28;20416;-70
2023/07/30 11:23:35;;;;;;;;;;;20.60;99.90;;;;;;4995113;28;19922;-69
2023/07/30 11:26:03;;;;;;;;;;;20.50;99.90;;;;;;5010030;28;19972;-69
2023/07/30 11:28:30;;;;;;;;;;;20.50;99.90;;;;;;4996492;28;20232;-69
2023/07/30 11:30:59;;;;;;;;;;;20.50;99.90;;;;;;5004938;28;19922;-69
2023/07/30 11:33:26;;;;;;;;;;;20.30;99.90;;;;;;5002287;28;20201;-71
2023/07/30 11:35:52;;;;;;;;;;;20.10;99.90;;;;;;4992248;28;19993;-70
2023/07/30 11:38:20;;;;;;;;;;;19.90;99.90;;;;;;4997110;28;19977;-70
2023/07/30 11:40:47;;;;;;;;;;;20.00;99.90;;;;;;4984766;28;19989;-69
2023/07/30 11:43:14;;;;;;;;;;;20.20;99.90;;;;;;5002122;28;19922;-70
2023/07/30 11:45:41;;;;;;;;;;;20.30;99.90;;;;;;5002956;28;20002;-70
2023/07/30 11:48:09;;;;;;;;;;;20.40;99.90;;;;;;5004367;28;19960;-70
2023/07/30 11:50:48;;;;;;;;;;;20.50;99.90;;;;;;4987128;28;19973;-71
2023/07/30 11:53:15;;;;;;;;;;;20.60;99.90;;;;;;4989145;28;19922;-70
2023/07/30 11:55:43;;;;;;;;;;;20.70;99.90;;;;;;4985084;28;19928;-70
2023/07/30 11:58:11;;;;;;;;;;;20.80;99.90;;;;;;4985737;28;19922;-69
2023/07/30 12:00:38;;;;;;;;;;;20.70;99.90;;;;;;5001303;28;19952;-70
2023/07/30 12:03:05;;;;;;;;;;;20.80;99.90;;;;;;5004701;28;19925;-69
2023/07/30 12:05:32;;;;;;;;;;;20.90;99.90;;;;;;5000656;28;19923;-70
2023/07/30 12:08:02;;;;;;;;;;;21.10;99.90;;;;;;5002376;28;20013;-69
2023/07/30 12:10:29;;;;;;;;;;;21.20;99.90;;;;;;4985124;28;20248;-69
2023/07/30 12:12:57;;;;;;;;;;;21.30;99.90;;;;;;4984848;28;19964;-70
2023/07/30 12:15:24;;;;;;;;;;;21.50;99.90;;;;;;4984971;28;20228;-69
2023/07/30 12:17:50;;;;;;;;;;;21.80;99.90;;;;;;4985105;28;19960;-71
2023/07/30 12:20:17;;;;;;;;;;;22.10;99.90;;;;;;4984509;28;20205;-69
2023/07/30 12:22:44;;;;;;;;;;;22.30;99.90;;;;;;4987278;28;19961;-69
2023/07/30 12:25:10;;;;;;;;;;;22.30;99.90;;;;;;5004100;28;19921;-70
2023/07/30 12:27:39;;;;;;;;;;;22.20;99.90;;;;;;4991467;28;19996;-69
2023/07/30 12:30:08;;;;;;;;;;;22.20;99.90;;;;;;4996401;28;19989;-69
2023/07/30 12:32:35;;;;;;;;;;;22.30;99.90;;;;;;4994064;28;19988;-69
2023/07/30 12:35:01;;;;;;;;;;;22.40;99.90;;;;;;4990543;28;19984;-68
2023/07/30 12:37:28;;;;;;;;;;;22.60;99.90;;;;;;4991333;28;19965;-69
2023/07/30 12:39:55;;;;;;;;;;;22.70;99.90;;;;;;5000396;28;19927;-70
2023/07/30 12:42:28;;;;;;;;;;;22.70;99.90;;;;;;4991427;28;19929;-69
2023/07/30 12:44:54;;;;;;;;;;;22.80;99.90;;;;;;4984305;28;20241;-69
2023/07/30 12:47:22;;;;;;;;;;;22.90;99.90;;;;;;4994041;28;19981;-68
2023/07/30 12:49:49;;;;;;;;;;;23.00;99.90;;;;;;5003506;28;19922;-70
2023/07/30 12:52:18;;;;;;;;;;;23.00;99.90;;;;;;5003633;28;19954;-71
2023/07/30 12:54:45;;;;;;;;;;;23.20;99.90;;;;;;5003883;28;19989;-70
2023/07/30 12:57:11;;;;;;;;;;;23.30;99.90;;;;;;5004049;28;19985;-70
2023/07/30 12:59:38;;;;;;;;;;;23.40;99.90;;;;;;4993219;28;20121;-71
2023/07/30 13:02:05;;;;;;;;;;;23.40;99.90;;;;;;4984726;28;19929;-70
2023/07/30 13:04:33;;;;;;;;;;;23.40;99.90;;;;;;4984540;28;19961;-72
2023/07/30 13:06:59;;;;;;;;;;;23.60;99.90;;;;;;4984550;28;19973;-69
2023/07/30 13:09:26;;;;;;;;;;;23.70;99.90;;;;;;4984036;28;19922;-71
2023/07/30 13:11:53;;;;;;;;;;;23.80;99.90;;;;;;4984409;28;19923;-70
2023/07/30 13:14:19;;;;;;;;;;;24.00;99.90;;;;;;4983712;28;20122;-69
2023/07/30 13:16:46;;;;;;;;;;;24.00;99.90;;;;;;4984160;28;19922;-70
2023/07/30 13:19:13;;;;;;;;;;;24.10;99.90;;;;;;4984357;28;19994;-70
2023/07/30 13:21:41;;;;;;;;;;;24.10;99.90;;;;;;4984074;28;19928;-71
2023/07/30 13:24:09;;;;;;;;;;;24.00;99.90;;;;;;4992421;28;19928;-71
2023/07/30 13:26:36;;;;;;;;;;;23.90;99.90;;;;;;5003629;28;19994;-70
2023/07/30 13:29:03;;;;;;;;;;;23.90;99.90;;;;;;5003827;28;19921;-71
2023/07/30 13:31:30;;;;;;;;;;;23.80;99.90;;;;;;5003592;28;19955;-71
2023/07/30 13:33:56;;;;;;;;;;;23.80;99.90;;;;;;5001540;28;19921;-70
2023/07/30 13:36:23;;;;;;;;;;;23.80;99.90;;;;;;5003543;28;19928;-73
2023/07/30 13:38:51;;;;;;;;;;;23.80;99.90;;;;;;4993711;28;19961;-70
2023/07/30 13:41:18;;;;;;;;;;;23.70;99.90;;;;;;4987504;28;19982;-71
2023/07/30 13:43:44;;;;;;;;;;;23.70;99.90;;;;;;4987231;28;19937;-70
2023/07/30 13:46:11;;;;;;;;;;;23.40;99.90;;;;;;4987541;28;19922;-71
2023/07/30 13:48:40;;;;;;;;;;;23.20;99.90;;;;;;5014416;28;19921;-71
2023/07/30 13:51:07;;;;;;;;;;;23.20;99.90;;;;;;5026223;28;19921;-72
2023/07/30 13:53:34;;;;;;;;;;;23.30;99.90;;;;;;5022839;28;19997;-69
2023/07/30 13:56:02;;;;;;;;;;;23.40;99.90;;;;;;5006995;28;19989;-70
2023/07/30 13:58:29;;;;;;;;;;;23.70;99.90;;;;;;5007129;28;19922;-71
2023/07/30 14:00:56;;;;;;;;;;;23.80;99.90;;;;;;5006637;28;19922;-71
2023/07/30 14:03:22;;;;;;;;;;;23.90;99.90;;;;;;5007184;28;19960;-71
2023/07/30 14:05:49;;;;;;;;;;;24.00;99.90;;;;;;4999810;28;19929;-69
2023/07/30 14:08:16;;;;;;;;;;;23.90;99.90;;;;;;4987173;28;19922;-69
2023/07/30 14:10:42;;;;;;;;;;;24.00;99.90;;;;;;4998496;28;20235;-70
2023/07/30 14:13:10;;;;;;;;;;;24.00;99.90;;;;;;5026110;28;19961;-71
2023/07/30 14:15:37;;;;;;;;;;;24.00;99.90;;;;;;5026304;28;20000;-71